createdAt,value
2022-11-30T00:01:50.975Z,9.80
2022-11-30T00:11:58.564Z,9.90
2022-11-30T00:22:04.494Z,10.10
2022-11-30T00:32:09.804Z,10.20
2022-11-30T00:42:16.157Z,10.00
2022-11-30T00:52:21.280Z,9.90
2022-11-30T01:02:27.960Z,9.90
2022-11-30T01:12:33.084Z,9.70
2022-11-30T01:22:37.331Z,9.80
2022-11-30T01:32:42.657Z,10.00
2022-11-30T01:42:48.526Z,9.90
2022-11-30T01:52:56.547Z,9.90
2022-11-30T02:03:04.476Z,9.90
2022-11-30T02:13:25.831Z,9.70
2022-11-30T02:23:50.740Z,9.50
2022-11-30T02:34:00.134Z,9.30
2022-11-30T02:44:04.904Z,9.10
2022-11-30T02:54:10.684Z,9.00
2022-11-30T03:04:15.470Z,8.90
2022-11-30T03:14:24.659Z,9.00
2022-11-30T03:24:28.325Z,9.00
2022-11-30T03:34:33.517Z,9.00
2022-11-30T03:44:37.211Z,8.90
2022-11-30T03:54:48.378Z,8.90
2022-11-30T04:04:52.385Z,9.00
2022-11-30T04:14:57.635Z,9.60
2022-11-30T04:25:01.464Z,9.70
2022-11-30T04:35:07.303Z,9.80
2022-11-30T04:45:11.777Z,9.70
2022-11-30T04:55:20.120Z,9.70
2022-11-30T05:05:23.916Z,9.80
2022-11-30T05:15:29.150Z,9.80
2022-11-30T05:25:34.023Z,9.70
2022-11-30T05:35:39.556Z,9.60
2022-11-30T05:45:45.535Z,9.40
2022-11-30T05:55:51.558Z,8.80
2022-11-30T06:05:55.303Z,8.50
2022-11-30T06:16:01.914Z,8.40
2022-11-30T06:26:10.042Z,8.60
2022-11-30T06:36:23.041Z,8.80
2022-11-30T06:46:27.191Z,8.70
2022-11-30T06:56:32.476Z,8.70
2022-11-30T07:06:36.166Z,8.80
2022-11-30T07:16:41.593Z,8.90
2022-11-30T07:26:45.370Z,9.00
2022-11-30T07:36:50.993Z,8.90
2022-11-30T13:55:48.099Z,16.00
2022-11-30T14:05:53.841Z,16.80
2022-11-30T14:16:00.222Z,18.50
2022-11-30T14:26:11.002Z,16.60
2022-11-30T14:36:15.973Z,16.20
2022-11-30T14:46:21.507Z,16.00
2022-11-30T14:56:32.620Z,15.90
2022-11-30T15:06:40.724Z,15.60
2022-11-30T15:16:49.332Z,17.00
2022-11-30T15:26:58.251Z,17.50
2022-11-30T15:37:01.959Z,16.40
2022-11-30T15:47:24.110Z,15.50
2022-11-30T15:57:49.753Z,15.10
2022-11-30T16:07:57.482Z,14.50
2022-11-30T16:18:07.047Z,14.30
2022-11-30T16:28:13.603Z,13.90
2022-11-30T16:38:17.375Z,13.90
2022-11-30T16:48:22.527Z,13.70
2022-11-30T16:58:26.272Z,13.50
2022-11-30T17:08:32.061Z,13.20
2022-11-30T17:18:35.753Z,12.90
2022-11-30T17:28:42.170Z,12.20
2022-11-30T17:38:46.249Z,11.50
2022-11-30T17:48:51.605Z,11.40
2022-11-30T17:58:55.673Z,11.40
2022-11-30T18:09:00.807Z,11.50
2022-11-30T18:19:12.067Z,11.60
2022-11-30T18:29:17.174Z,11.40
2022-11-30T18:39:20.940Z,11.30
2022-11-30T18:49:26.080Z,11.20
2022-11-30T18:59:30.017Z,11.20
2022-11-30T19:09:35.333Z,11.20
2022-11-30T19:19:39.141Z,11.10
2022-11-30T19:29:44.373Z,10.90
2022-11-30T19:39:48.047Z,10.80
2022-11-30T19:49:53.021Z,10.60
2022-11-30T19:59:56.746Z,10.50
2022-11-30T20:10:01.859Z,10.40
2022-11-30T20:20:06.143Z,10.30
2022-11-30T20:30:12.162Z,10.20
2022-11-30T20:40:16.059Z,10.10
2022-11-30T20:50:21.150Z,10.10
2022-11-30T21:00:25.620Z,10.20
2022-11-30T21:10:30.656Z,10.10
2022-11-30T21:20:34.337Z,10.10
2022-11-30T21:30:43.108Z,10.00
2022-11-30T21:40:55.418Z,10.10
2022-11-30T21:51:01.802Z,10.20
2022-11-30T22:01:05.546Z,10.10
2022-11-30T22:11:11.709Z,10.30
2022-11-30T22:21:17.283Z,10.70
2022-11-30T22:31:24.176Z,10.90
2022-11-30T22:41:28.939Z,10.70
2022-11-30T22:51:36.071Z,10.50
2022-11-30T23:01:44.155Z,10.20
2022-11-30T23:11:49.302Z,10.30
2022-11-30T23:21:53.644Z,10.00
2022-11-30T23:31:59.037Z,9.80
2022-11-30T23:42:02.913Z,9.80
2022-11-30T23:52:08.051Z,9.90
